createdAt,value
2022-07-27T00:01:06.072Z,7.40
2022-07-27T00:04:11.763Z,11.65
2022-07-27T00:07:17.353Z,7.62
2022-07-27T00:10:23.618Z,10.08
2022-07-27T00:13:30.083Z,13.20
2022-07-27T00:16:37.030Z,9.60
2022-07-27T00:19:43.434Z,11.57
2022-07-27T00:22:49.785Z,9.05
2022-07-27T00:25:55.587Z,15.60
2022-07-27T00:29:01.495Z,9.15
2022-07-27T00:32:12.340Z,12.88
2022-07-27T00:35:14.748Z,8.53
2022-07-27T00:38:20.444Z,9.30
2022-07-27T00:41:25.818Z,8.33
2022-07-27T00:44:43.351Z,9.28
2022-07-27T00:47:54.568Z,8.73
2022-07-27T00:50:57.905Z,8.55
2022-07-27T00:54:03.748Z,8.43
2022-07-27T00:57:08.831Z,10.13
2022-07-27T01:00:14.137Z,10.85
2022-07-27T01:03:20.654Z,11.05
2022-07-27T01:06:28.374Z,12.05
2022-07-27T01:09:53.131Z,12.37
2022-07-27T01:13:00.289Z,10.32
2022-07-27T01:15:59.960Z,9.95
2022-07-27T01:19:05.459Z,9.93
2022-07-27T01:22:12.565Z,10.55
2022-07-27T01:25:19.333Z,8.90
2022-07-27T01:28:25.048Z,9.65
2022-07-27T01:31:30.570Z,12.15
2022-07-27T01:34:40.031Z,11.22
2022-07-27T01:37:48.106Z,14.63
2022-07-27T01:40:55.147Z,13.38
2022-07-27T01:44:02.071Z,10.18
2022-07-27T01:47:14.604Z,12.55
2022-07-27T01:50:14.891Z,12.60
2022-07-27T01:53:21.651Z,13.70
2022-07-27T01:56:28.325Z,12.75
2022-07-27T01:59:35.987Z,15.32
2022-07-27T02:02:41.950Z,16.10
2022-07-27T02:05:49.121Z,15.55
2022-07-27T02:08:53.833Z,14.78
2022-07-27T02:12:10.541Z,15.13
2022-07-27T02:15:26.465Z,12.10
2022-07-27T02:18:36.890Z,13.68
2022-07-27T02:21:41.374Z,10.15
2022-07-27T02:24:47.842Z,13.45
2022-07-27T02:27:55.031Z,18.07
2022-07-27T02:31:01.009Z,16.07
2022-07-27T02:34:06.727Z,13.10
2022-07-27T02:37:06.871Z,16.25
2022-07-27T02:40:12.515Z,15.18
2022-07-27T02:43:10.649Z,13.18
2022-07-27T02:46:16.092Z,14.05
2022-07-27T02:49:21.104Z,13.38
2022-07-27T02:52:27.259Z,21.93
2022-07-27T02:55:32.761Z,16.60
2022-07-27T02:58:38.605Z,14.15
2022-07-27T03:01:44.512Z,19.95
2022-07-27T03:04:37.246Z,12.53
2022-07-27T03:07:43.195Z,15.25
2022-07-27T03:10:49.815Z,13.50
2022-07-27T03:13:56.146Z,15.32
2022-07-27T03:17:02.178Z,25.60
2022-07-27T03:20:10.657Z,20.95
2022-07-27T03:23:15.922Z,21.10
2022-07-27T03:26:21.266Z,22.60
2022-07-27T03:29:29.332Z,21.30
2022-07-27T03:32:33.814Z,24.30
2022-07-27T03:35:39.033Z,23.45
2022-07-27T03:38:44.241Z,25.37
2022-07-27T03:41:42.680Z,22.90
2022-07-27T03:44:48.192Z,19.67
2022-07-27T03:47:54.417Z,19.20
2022-07-27T03:51:00.072Z,15.80
2022-07-27T03:54:07.118Z,15.88
2022-07-27T03:57:13.229Z,13.18
2022-07-27T04:00:20.972Z,16.85
2022-07-27T04:03:19.890Z,20.97
2022-07-27T04:09:31.936Z,17.12
2022-07-27T04:12:39.188Z,16.05
2022-07-27T04:15:45.578Z,16.17
2022-07-27T04:18:50.958Z,13.93
2022-07-27T04:21:56.753Z,18.50
2022-07-27T04:25:02.641Z,17.48
2022-07-27T04:28:07.806Z,12.25
2022-07-27T04:31:14.512Z,19.35
2022-07-27T04:34:21.476Z,16.45
2022-07-27T04:37:29.163Z,17.12
2022-07-27T04:40:34.815Z,16.48
2022-07-27T04:43:40.750Z,17.92
2022-07-27T04:46:45.361Z,14.13
2022-07-27T04:49:51.060Z,20.00
2022-07-27T04:52:56.523Z,10.00
2022-07-27T04:56:02.214Z,18.95
2022-07-27T04:59:10.073Z,15.45
2022-07-27T05:02:16.413Z,23.18
2022-07-27T05:05:22.773Z,13.60
2022-07-27T05:08:28.963Z,16.62
2022-07-27T05:11:34.019Z,11.60
2022-07-27T05:14:41.134Z,9.20
2022-07-27T05:17:48.607Z,14.90
2022-07-27T05:20:54.015Z,12.43
2022-07-27T05:24:00.499Z,16.57
2022-07-27T05:27:05.731Z,12.75
2022-07-27T05:30:13.183Z,13.30
2022-07-27T05:33:19.813Z,13.28
2022-07-27T05:36:26.463Z,10.80
2022-07-27T05:39:33.120Z,10.48
2022-07-27T05:42:39.561Z,11.53
2022-07-27T05:45:44.962Z,10.55
2022-07-27T05:48:51.584Z,7.15
2022-07-27T05:51:56.524Z,11.63
2022-07-27T05:54:55.960Z,9.48
2022-07-27T05:57:55.581Z,8.80
2022-07-27T06:01:01.381Z,11.22
2022-07-27T06:04:07.984Z,5.87
2022-07-27T06:07:32.024Z,8.48
2022-07-27T06:10:38.603Z,6.60
2022-07-27T06:13:43.638Z,5.90
2022-07-27T06:16:50.748Z,8.25
2022-07-27T06:19:56.549Z,4.08
2022-07-27T06:23:09.571Z,6.25
2022-07-27T06:26:09.496Z,5.12
2022-07-27T06:29:16.185Z,3.20
2022-07-27T06:32:21.537Z,5.47
2022-07-27T06:35:30.402Z,3.80
2022-07-27T06:38:36.748Z,5.08
2022-07-27T06:41:42.174Z,5.58
2022-07-27T06:44:47.081Z,4.47
2022-07-27T06:47:52.659Z,6.75
2022-07-27T06:50:58.886Z,8.35
2022-07-27T06:54:04.546Z,3.50
2022-07-27T06:57:10.379Z,3.85
2022-07-27T07:00:16.138Z,9.03
2022-07-27T07:03:23.220Z,7.10
2022-07-27T07:06:29.697Z,7.10
2022-07-27T07:09:36.463Z,5.08
2022-07-27T07:12:43.236Z,4.15
2022-07-27T07:15:49.447Z,5.72
2022-07-27T07:18:56.154Z,5.30
2022-07-27T07:22:01.648Z,3.50
2022-07-27T07:25:06.967Z,7.80
2022-07-27T07:28:12.996Z,5.25
2022-07-27T07:31:17.925Z,5.10
2022-07-27T07:34:23.977Z,4.05
2022-07-27T07:37:33.679Z,12.05
2022-07-27T07:40:45.308Z,3.65
2022-07-27T07:43:46.234Z,7.33
2022-07-27T07:46:51.382Z,4.12
2022-07-27T07:49:57.271Z,5.50
2022-07-27T07:53:05.113Z,12.43
2022-07-27T07:56:11.240Z,7.05
2022-07-27T07:59:16.619Z,9.88
2022-07-27T08:02:23.232Z,4.87
2022-07-27T08:05:28.978Z,6.60
2022-07-27T08:08:37.064Z,2.72
2022-07-27T08:11:42.404Z,7.65
2022-07-27T08:14:48.346Z,2.27
2022-07-27T08:17:55.114Z,7.03
2022-07-27T08:21:01.860Z,3.25
2022-07-27T08:24:07.351Z,2.83
2022-07-27T08:27:15.283Z,3.60
2022-07-27T08:30:22.065Z,4.25
2022-07-27T08:33:27.680Z,5.25
2022-07-27T08:36:34.749Z,2.67
2022-07-27T08:40:37.237Z,5.05
2022-07-27T08:42:49.233Z,4.10
2022-07-27T08:45:55.755Z,3.45
2022-07-27T08:49:01.323Z,6.30
2022-07-27T08:52:09.478Z,4.10
2022-07-27T08:55:15.222Z,3.20
2022-07-27T08:58:22.545Z,5.10
2022-07-27T09:01:28.724Z,2.47
2022-07-27T09:04:33.896Z,3.83
2022-07-27T09:07:42.927Z,4.55
2022-07-27T09:10:50.117Z,8.13
2022-07-27T09:13:49.240Z,3.87
2022-07-27T09:17:44.129Z,2.92
2022-07-27T09:20:15.697Z,2.87
2022-07-27T09:23:17.697Z,5.30
2022-07-27T09:26:34.562Z,3.47
2022-07-27T09:29:33.665Z,5.28
2022-07-27T09:32:39.370Z,2.30
2022-07-27T09:35:48.008Z,2.22
2022-07-27T09:39:01.730Z,3.75
2022-07-27T09:42:04.912Z,2.17
2022-07-27T09:45:12.398Z,3.87
2022-07-27T09:48:36.022Z,6.22
2022-07-27T09:51:59.618Z,2.55
2022-07-27T09:54:58.914Z,3.05
2022-07-27T09:58:15.398Z,2.00
2022-07-27T10:01:15.309Z,4.85
2022-07-27T10:04:21.846Z,1.90
2022-07-27T10:07:29.439Z,2.20
2022-07-27T10:10:35.920Z,2.65
2022-07-27T10:13:43.743Z,2.87
2022-07-27T10:16:50.218Z,1.90
2022-07-27T10:20:02.436Z,1.82
2022-07-27T10:23:14.207Z,3.20
2022-07-27T10:26:42.016Z,2.02
2022-07-27T10:29:46.956Z,4.53
2022-07-27T10:32:53.810Z,4.20
2022-07-27T10:35:59.532Z,2.50
2022-07-27T10:39:07.333Z,1.75
2022-07-27T10:42:36.716Z,3.37
2022-07-27T10:48:53.236Z,3.15
2022-07-27T10:51:59.856Z,4.28
2022-07-27T10:55:06.817Z,2.55
2022-07-27T10:58:35.553Z,1.98
2022-07-27T11:01:42.459Z,2.55
2022-07-27T11:04:48.011Z,3.25
2022-07-27T11:08:34.937Z,2.17
2022-07-27T11:11:03.395Z,1.52
2022-07-27T11:14:11.843Z,3.35
2022-07-27T11:20:31.276Z,3.67
2022-07-27T11:23:50.873Z,2.35
2022-07-27T11:26:48.253Z,2.10
2022-07-27T11:29:53.950Z,2.22
2022-07-27T11:33:00.424Z,2.80
2022-07-27T11:36:11.236Z,9.53
2022-07-27T11:39:28.554Z,1.67
2022-07-27T11:42:24.183Z,1.77
2022-07-27T11:45:45.805Z,3.65
2022-07-27T11:49:09.506Z,3.10
2022-07-27T11:52:02.451Z,3.70
2022-07-27T11:55:07.742Z,2.60
2022-07-27T11:58:21.437Z,4.58
2022-07-27T12:01:29.262Z,1.42
2022-07-27T12:04:49.260Z,5.72
2022-07-27T12:07:54.744Z,1.45
2022-07-27T12:11:14.257Z,3.83
2022-07-27T12:17:42.157Z,1.75
2022-07-27T12:20:48.643Z,2.67
2022-07-27T12:24:05.989Z,1.40
2022-07-27T12:27:24.178Z,1.30
2022-07-27T12:30:28.951Z,1.92
2022-07-27T12:33:53.610Z,5.25
2022-07-27T12:36:58.174Z,3.08
2022-07-27T12:40:03.873Z,3.30
2022-07-27T12:43:18.519Z,3.37
2022-07-27T12:46:28.054Z,2.55
2022-07-27T12:49:33.161Z,1.72
2022-07-27T12:52:38.281Z,3.33
2022-07-27T12:55:43.474Z,3.05
2022-07-27T12:58:49.047Z,5.10
2022-07-27T13:01:58.527Z,2.85
2022-07-27T13:05:03.893Z,2.83
2022-07-27T13:08:11.881Z,2.67
2022-07-27T13:11:21.291Z,5.37
2022-07-27T13:14:21.201Z,1.17
2022-07-27T13:17:27.429Z,3.45
2022-07-27T13:20:33.481Z,7.78
2022-07-27T13:23:39.631Z,2.17
2022-07-27T13:26:45.038Z,3.35
2022-07-27T13:29:50.715Z,12.20
2022-07-27T13:32:55.975Z,12.65
2022-07-27T13:36:02.617Z,4.70
2022-07-27T13:39:08.249Z,3.50
2022-07-27T13:42:15.523Z,1.95
2022-07-27T13:45:21.933Z,6.67
2022-07-27T13:48:28.554Z,7.40
2022-07-27T13:51:33.654Z,3.37
2022-07-27T13:54:39.463Z,2.30
2022-07-27T13:57:45.000Z,3.12
2022-07-27T14:00:51.840Z,2.40
2022-07-27T14:03:57.694Z,5.22
2022-07-27T14:07:03.156Z,1.65
2022-07-27T14:10:26.751Z,3.45
2022-07-27T14:13:36.718Z,3.98
2022-07-27T14:16:44.503Z,5.12
2022-07-27T14:19:53.229Z,4.25
2022-07-27T14:22:59.380Z,4.95
2022-07-27T14:26:05.129Z,3.30
2022-07-27T14:29:10.901Z,4.78
2022-07-27T14:32:17.565Z,2.95
2022-07-27T14:35:24.022Z,3.77
2022-07-27T14:38:31.200Z,2.40
2022-07-27T14:41:43.949Z,4.17
2022-07-27T14:44:44.297Z,3.25
2022-07-27T14:47:50.240Z,3.72
2022-07-27T14:50:56.922Z,2.60
2022-07-27T14:54:03.089Z,2.33
2022-07-27T14:57:08.699Z,2.62
2022-07-27T15:00:16.474Z,2.47
2022-07-27T15:03:21.847Z,2.75
2022-07-27T15:06:27.327Z,3.98
2022-07-27T15:09:33.122Z,4.25
2022-07-27T15:12:39.301Z,1.60
2022-07-27T15:15:46.550Z,1.85
2022-07-27T15:18:53.105Z,3.98
2022-07-27T15:21:59.233Z,3.05
2022-07-27T15:25:05.630Z,2.15
2022-07-27T15:28:05.059Z,3.37
2022-07-27T15:31:11.095Z,2.90
2022-07-27T15:34:16.048Z,4.55
2022-07-27T15:37:21.446Z,7.15
2022-07-27T15:40:46.192Z,4.72
2022-07-27T15:43:52.006Z,3.98
2022-07-27T15:46:57.810Z,3.77
2022-07-27T15:50:03.979Z,4.50
2022-07-27T15:53:10.320Z,4.90
2022-07-27T15:56:16.902Z,5.97
2022-07-27T15:59:23.096Z,5.87
2022-07-27T16:02:32.912Z,7.00
2022-07-27T16:05:40.390Z,2.62
2022-07-27T16:08:46.148Z,7.15
2022-07-27T16:11:52.631Z,2.80
2022-07-27T16:15:00.842Z,4.40
2022-07-27T16:18:06.178Z,7.22
2022-07-27T16:21:11.935Z,1.90
2022-07-27T16:24:17.311Z,4.85
2022-07-27T16:27:23.769Z,22.05
2022-07-27T16:30:33.968Z,5.40
2022-07-27T16:33:38.530Z,10.45
2022-07-27T16:36:44.293Z,12.05
2022-07-27T16:39:51.667Z,4.90
2022-07-27T16:42:59.527Z,3.20
2022-07-27T16:46:07.113Z,8.35
2022-07-27T16:49:13.149Z,15.00
2022-07-27T16:52:20.459Z,22.95
2022-07-27T16:55:27.569Z,18.75
2022-07-27T16:58:33.640Z,40.50
2022-07-27T17:01:39.405Z,20.97
2022-07-27T17:04:45.458Z,9.43
2022-07-27T17:07:50.770Z,9.13
2022-07-27T17:10:56.293Z,20.45
2022-07-27T17:14:05.027Z,16.20
2022-07-27T17:17:12.656Z,13.80
2022-07-27T17:20:28.052Z,23.65
2022-07-27T17:26:28.991Z,12.55
2022-07-27T17:29:35.455Z,11.38
2022-07-27T17:32:41.371Z,8.65
2022-07-27T17:35:47.911Z,9.50
2022-07-27T17:38:54.211Z,15.10
2022-07-27T17:41:53.217Z,6.47
2022-07-27T17:45:00.295Z,9.93
2022-07-27T17:48:06.654Z,31.90
2022-07-27T17:51:12.751Z,10.50
2022-07-27T17:54:18.259Z,5.85
2022-07-27T17:57:24.227Z,15.58
2022-07-27T18:00:31.166Z,26.35
2022-07-27T18:03:36.749Z,12.47
2022-07-27T18:06:42.802Z,10.38
2022-07-27T18:09:47.804Z,6.85
2022-07-27T18:12:54.636Z,7.05
2022-07-27T18:16:01.461Z,8.00
2022-07-27T18:19:09.866Z,19.23
2022-07-27T18:22:15.589Z,13.98
2022-07-27T18:25:22.350Z,10.50
2022-07-27T18:28:27.659Z,8.65
2022-07-27T18:31:34.172Z,9.15
2022-07-27T18:34:39.577Z,9.60
2022-07-27T18:37:44.770Z,10.85
2022-07-27T18:40:52.733Z,10.00
2022-07-27T18:44:01.123Z,12.23
2022-07-27T18:47:07.025Z,11.55
2022-07-27T18:50:11.897Z,13.95
2022-07-27T18:53:17.722Z,13.55
2022-07-27T18:56:23.230Z,18.02
2022-07-27T18:59:29.241Z,12.00
2022-07-27T19:02:39.076Z,12.25
2022-07-27T19:05:41.998Z,9.98
2022-07-27T19:08:48.216Z,12.70
2022-07-27T19:11:54.443Z,17.75
2022-07-27T19:15:00.635Z,11.90
2022-07-27T19:18:05.898Z,15.75
2022-07-27T19:21:12.082Z,15.83
2022-07-27T19:24:18.533Z,12.13
2022-07-27T19:27:23.986Z,11.55
2022-07-27T19:30:30.059Z,14.13
2022-07-27T19:33:37.242Z,8.28
2022-07-27T19:36:42.678Z,8.85
2022-07-27T19:39:57.502Z,9.70
2022-07-27T19:42:55.593Z,21.87
2022-07-27T19:46:00.965Z,11.73
2022-07-27T19:49:06.905Z,16.87
2022-07-27T19:52:13.223Z,7.75
2022-07-27T19:55:18.006Z,14.30
2022-07-27T19:58:25.032Z,9.83
2022-07-27T20:01:30.248Z,12.13
2022-07-27T20:04:37.278Z,12.18
2022-07-27T20:07:41.504Z,14.05
2022-07-27T20:10:47.629Z,17.15
2022-07-27T20:13:55.323Z,11.68
2022-07-27T20:17:01.457Z,10.48
2022-07-27T20:20:07.743Z,10.25
2022-07-27T20:23:14.319Z,11.40
2022-07-27T20:26:21.428Z,6.12
2022-07-27T20:29:28.007Z,11.10
2022-07-27T20:32:35.560Z,11.50
2022-07-27T20:35:42.971Z,16.45
2022-07-27T20:38:48.717Z,12.03
2022-07-27T20:41:54.100Z,10.60
2022-07-27T20:45:00.189Z,15.15
2022-07-27T20:48:06.506Z,9.78
2022-07-27T20:51:12.056Z,9.23
2022-07-27T20:54:18.003Z,9.80
2022-07-27T20:57:25.750Z,12.13
2022-07-27T21:00:32.655Z,9.80
2022-07-27T21:03:38.947Z,6.28
2022-07-27T21:06:44.062Z,11.65
2022-07-27T21:09:51.020Z,10.23
2022-07-27T21:12:55.967Z,8.05
2022-07-27T21:16:02.203Z,7.28
2022-07-27T21:19:08.305Z,15.10
2022-07-27T21:22:15.430Z,6.75
2022-07-27T21:25:22.908Z,11.95
2022-07-27T21:28:29.685Z,6.28
2022-07-27T21:31:37.165Z,7.22
2022-07-27T21:34:43.235Z,7.55
2022-07-27T21:37:51.081Z,15.35
2022-07-27T21:40:56.995Z,7.97
2022-07-27T21:44:02.562Z,15.45
2022-07-27T21:47:13.492Z,8.65
2022-07-27T21:50:15.205Z,17.32
2022-07-27T21:53:21.149Z,11.22
2022-07-27T21:56:27.536Z,18.15
2022-07-27T21:59:32.368Z,34.20
2022-07-27T22:02:38.214Z,41.10
2022-07-27T22:05:43.640Z,41.68
2022-07-27T22:08:50.614Z,37.17
2022-07-27T22:11:56.780Z,40.15
2022-07-27T22:15:02.020Z,44.55
2022-07-27T22:18:07.416Z,32.85
2022-07-27T22:21:16.126Z,26.65
2022-07-27T22:24:22.790Z,33.00
2022-07-27T22:27:30.147Z,41.05
2022-07-27T22:30:36.581Z,31.10
2022-07-27T22:33:44.413Z,31.23
2022-07-27T22:36:48.921Z,36.03
2022-07-27T22:39:55.181Z,35.73
2022-07-27T22:43:02.246Z,41.68
2022-07-27T22:46:07.734Z,43.78
2022-07-27T22:49:14.367Z,32.05
2022-07-27T22:52:20.470Z,38.53
2022-07-27T22:55:26.097Z,35.13
2022-07-27T22:58:32.690Z,35.63
2022-07-27T23:01:46.590Z,25.88
2022-07-27T23:04:46.014Z,28.80
2022-07-27T23:07:50.798Z,29.07
2022-07-27T23:10:57.557Z,24.05
2022-07-27T23:14:05.292Z,19.75
2022-07-27T23:17:10.753Z,20.60
2022-07-27T23:20:19.544Z,18.35
2022-07-27T23:23:27.642Z,18.80
2022-07-27T23:26:33.179Z,17.52
2022-07-27T23:29:39.600Z,20.17
2022-07-27T23:32:46.497Z,18.17
2022-07-27T23:35:51.413Z,25.05
2022-07-27T23:38:57.218Z,23.02
2022-07-27T23:42:02.401Z,26.42
2022-07-27T23:45:08.661Z,31.93
2022-07-27T23:48:13.334Z,35.40
2022-07-27T23:51:19.272Z,36.42
2022-07-27T23:54:25.469Z,42.90
2022-07-27T23:57:30.503Z,44.85
